Tropical Cyclones
[Index]
Main Index Home Page Stock Weather Photos Extreme Storms Discussion Storm News and Storm Chasing Reports Tropical Cyclones / Hurricanes / Typhoons Weather Data and Links Wild Fires / Bushfires Weather Observation Techniques Weather Picture Catalogue Tornado Pictures and Reports Stock Video Footage and DVDs for sale
Season 2002-2003 Tropical Cyclone BENI Track Map
Season 2002-2003 Summaries: [BoM-AU] [JTWC-AU] [JTWC-SIO] [JTWC-SPAC] [JTWC-SH]
<<- Previous TC | JTWC 2002-2003 Season | Next TC ->>

click for intensity scale information  Lat/long Grid: Show Hide

 Date Labels: Show Hide

Joint Typhoon Warning Centre Cyclone Data

Name: BENI

24 Jan 2003 12:00 UTC to 05 Feb 2003 00:00 UTC

    date/time    lat    long     hPa   cat  kts
2003-01-24 12   12.9   162.0    1004         20          
2003-01-24 18   13.0   161.7    1002         25          
2003-01-25 00   13.1   161.4    1000         30          
2003-01-25 06   13.1   161.1     997         35          
2003-01-25 12   12.9   160.9     997         35          
2003-01-25 18   12.6   160.8     997         35          
2003-01-26 00   12.4   161.0     994    1    40          
2003-01-26 06   12.4   161.3     991    1    45          
2003-01-26 12   12.7   161.3     987    1    50          
2003-01-26 18   12.9   161.1     984    2    55          
2003-01-27 00   13.0   160.8     984    2    55          
2003-01-27 06   13.4   160.7     984    2    55          
2003-01-27 12   13.8   160.8     984    2    55          
2003-01-27 18   14.2   160.6     980    2    60          
2003-01-28 00   14.7   160.7     967    3    75          
2003-01-28 06   15.2   160.8     963    3    80          
2003-01-28 12   15.6   161.1     954    3    90          
2003-01-28 18   16.0   161.8     927    4   115          
2003-01-29 00   16.5   162.7     916    5   125          
2003-01-29 06   17.1   163.7     916    5   125          
2003-01-29 12   17.8   164.9     916    5   125          
2003-01-29 18   18.3   166.2     927    4   115          
2003-01-30 00   19.1   167.7     938    4   105          
2003-01-30 06   19.9   168.8     954    3    90          
2003-01-30 12   20.8   169.3     967    3    75          
2003-01-30 18   21.6   169.0     980    2    60          
2003-01-31 00   22.3   168.0     994    1    40          
2003-01-31 06   23.1   166.8     997         35          
2003-01-31 12   24.1   165.2    1000         30          
2003-01-31 18   24.3   163.1    1000         30          
2003-02-01 00   23.8   161.7    1002         25          
2003-02-01 06   23.4   160.6    1002         25          
2003-02-01 12   23.1   159.6    1002         25          
2003-02-01 18   22.6   158.7    1002         25          
2003-02-02 00   22.3   158.0    1002         25          
2003-02-02 06   22.0   157.4    1002         25          
2003-02-02 12   21.5   156.6    1002         25          
2003-02-02 18   21.1   155.8    1002         25          
2003-02-03 00   20.9   154.7    1002         25          
2003-02-03 06   20.5   153.7    1002         25          
2003-02-03 12   20.3   153.2    1002         25          
2003-02-03 18   20.5   152.7    1000         25          
2003-02-04 00   20.7   152.1    1004         20          
2003-02-04 06   20.6   151.3    1004         20          
2003-02-04 12   20.2   150.6    1004         20          
2003-02-04 18   19.9   150.2    1004         20          
2003-02-05 00   20.1   149.7    1004         20          
Winds are 1-min average.

Tropical cyclone tracks developed by Michael Bath using data from the Joint Typhoon Warning Centre Best Tracks and Google Maps.


[Australian Severe Weather index] [Copyright Notice] [Email Contacts] [Search This Site] [Privacy Policy]
Document: tropical_cyclone_beni.htm Updated: 28 June 2017